Time;durP1;ratioP1;P1;durP2;ratioP2;P2;SDS_P1;SDS_P2;PMS_P1;PMS_P2;Temp;Humidity;BMP_temperature;BMP_pressure;BME280_temperature;BME280_humidity;BME280_pressure;Samples;Min_cycle;Max_cycle;Signal;HPM_P1;HPM_P2
2022/01/01 00:00:33;;;;;;;51.80;31.07;;;8.20;97.30;;;8.00;69.39;95411.09;4987628;28;21041;-63
2022/01/01 00:03:00;;;;;;;51.40;28.00;;;8.10;97.40;;;7.96;69.57;95404.38;4987984;28;20470;-56
2022/01/01 00:05:27;;;;;;;51.23;28.57;;;8.10;97.60;;;7.91;69.74;95409.97;4983981;28;21955;-56
2022/01/01 00:07:56;;;;;;;52.30;31.33;;;8.00;97.50;;;7.88;69.14;95405.78;4984691;28;20466;-57
2022/01/01 00:10:23;;;;;;;51.67;27.33;;;8.00;97.60;;;7.83;69.70;95405.28;4984179;28;21028;-62
2022/01/01 00:12:50;;;;;;;50.30;27.20;;;8.00;97.60;;;7.79;69.39;95409.06;4985735;28;20463;-58
2022/01/01 00:15:19;;;;;;;50.67;28.83;;;7.90;97.60;;;7.74;69.86;95408.53;4980966;28;20479;-63
2022/01/01 00:17:47;;;;;;;61.13;28.77;;;7.90;97.70;;;7.69;69.51;95398.41;4988116;28;20475;-61
2022/01/01 00:20:14;;;;;;;57.23;30.80;;;7.80;97.80;;;7.68;69.22;95395.88;4983547;28;20481;-58
2022/01/01 00:22:42;;;;;;;57.87;32.13;;;7.80;97.70;;;7.65;69.58;95393.50;4984757;28;20448;-56
2022/01/01 00:25:10;;;;;;;62.27;31.57;;;7.80;97.70;;;7.62;69.42;95391.09;4986460;28;20649;-62
2022/01/01 00:27:38;;;;;;;57.83;28.87;;;7.70;97.50;;;7.59;69.93;95386.06;4984566;28;20459;-56
2022/01/01 00:30:07;;;;;;;52.60;30.43;;;7.70;97.60;;;7.54;69.15;95389.88;4985057;28;20581;-57
2022/01/01 00:32:36;;;;;;;48.20;26.40;;;7.70;97.70;;;7.50;69.18;95388.41;4985415;28;20470;-61
2022/01/01 00:35:04;;;;;;;53.33;30.47;;;7.60;97.70;;;7.47;69.33;95401.69;4982944;28;20478;-63
2022/01/01 00:37:32;;;;;;;50.30;31.30;;;7.60;97.70;;;7.42;69.96;95395.97;4981416;28;21012;-58
2022/01/01 00:39:59;;;;;;;59.40;31.53;;;7.60;97.70;;;7.38;69.75;95394.50;4983928;28;20466;-61
2022/01/01 00:42:26;;;;;;;51.67;28.67;;;7.50;97.80;;;7.36;69.53;95393.78;4979390;28;20941;-57
2022/01/01 00:44:54;;;;;;;53.93;31.00;;;7.50;97.80;;;7.33;69.67;95386.13;4982351;28;20480;-61
2022/01/01 00:47:22;;;;;;;53.73;30.73;;;7.50;97.90;;;7.30;69.88;95383.75;4986534;28;20849;-63
2022/01/01 00:49:51;;;;;;;53.40;32.23;;;7.40;97.80;;;7.25;70.23;95378.81;4982577;28;20938;-58
2022/01/01 00:52:18;;;;;;;53.77;30.37;;;7.40;97.90;;;7.22;70.27;95378.19;4983916;28;20451;-58
2022/01/01 00:54:46;;;;;;;56.33;28.97;;;7.40;98.10;;;7.17;69.74;95376.75;4984015;28;20474;-62
2022/01/01 00:57:13;;;;;;;51.93;27.87;;;7.30;98.00;;;7.15;69.85;95378.59;4987590;28;20451;-56
2022/01/01 00:59:40;;;;;;;42.70;26.80;;;7.30;98.20;;;7.13;70.15;95364.81;4986829;28;20530;-56
2022/01/01 01:02:08;;;;;;;40.80;23.80;;;7.30;98.30;;;7.12;70.83;95373.59;4984303;28;20451;-62
2022/01/01 01:04:35;;;;;;;45.57;28.53;;;7.20;98.40;;;7.11;70.71;95373.69;4984504;28;20451;-57
2022/01/01 01:07:04;;;;;;;43.20;25.90;;;7.20;98.50;;;7.10;70.85;95367.63;4985465;28;20477;-62
2022/01/01 01:09:31;;;;;;;47.90;22.67;;;7.20;98.50;;;7.06;70.39;95358.31;4988215;28;20473;-62
2022/01/01 01:11:59;;;;;;;39.37;23.10;;;7.20;98.60;;;7.05;71.03;95350.56;4982062;28;20451;-57
2022/01/01 01:14:28;;;;;;;35.00;21.90;;;7.20;98.50;;;7.04;70.94;95360.22;4980940;28;20447;-60
2022/01/01 01:16:55;;;;;;;38.57;22.67;;;7.20;98.60;;;7.04;70.80;95359.38;4987583;28;20914;-62
2022/01/01 01:19:23;;;;;;;35.90;22.67;;;7.20;98.60;;;7.04;70.53;95354.97;4987763;28;20447;-55
2022/01/01 01:21:51;;;;;;;41.60;19.97;;;7.20;98.50;;;7.03;71.11;95353.31;4989426;28;20456;-56
2022/01/01 01:24:23;;;;;;;29.13;17.03;;;7.20;98.90;;;7.03;71.35;95368.16;4988145;28;20802;-61
2022/01/01 01:26:51;;;;;;;26.70;16.30;;;7.20;99.00;;;7.04;71.17;95378.53;4988337;28;21013;-61
2022/01/01 01:29:19;;;;;;;25.50;15.13;;;7.20;98.70;;;6.98;70.77;95371.09;4989305;28;20486;-61
2022/01/01 01:31:46;;;;;;;17.53;12.30;;;7.10;98.80;;;7.01;71.18;95383.97;4987260;28;20513;-57
2022/01/01 01:34:14;;;;;;;21.00;10.67;;;7.10;98.90;;;7.00;71.53;95390.13;4987144;28;20454;-58
2022/01/01 01:36:41;;;;;;;21.90;12.53;;;7.10;99.00;;;6.98;71.39;95386.78;4988763;28;20481;-61
2022/01/01 01:39:08;;;;;;;24.40;11.13;;;7.10;99.00;;;6.96;71.03;95378.22;4988040;28;20446;-57
2022/01/01 01:41:37;;;;;;;18.90;10.60;;;7.10;99.00;;;6.96;71.41;95375.59;4986417;28;20573;-57
2022/01/01 01:44:24;;;;;;;17.10;11.90;;;7.10;99.00;;;6.95;71.31;95377.38;4988300;28;20453;-58
2022/01/01 01:46:51;;;;;;;18.80;12.03;;;7.10;99.00;;;6.94;71.57;95367.88;4988439;28;20446;-58
2022/01/01 01:49:19;;;;;;;19.17;11.00;;;7.00;98.90;;;6.94;71.43;95365.25;4988357;28;20462;-62
2022/01/01 01:51:46;;;;;;;14.43;10.37;;;7.10;99.00;;;6.94;70.82;95365.25;4987883;28;20497;-62
2022/01/01 01:54:14;;;;;;;14.40;10.63;;;7.10;99.00;;;6.94;71.17;95365.25;4987532;28;20459;-62
2022/01/01 01:56:42;;;;;;;20.97;11.17;;;7.10;99.00;;;6.94;71.47;95367.00;4988886;28;21065;-61
2022/01/01 01:59:10;;;;;;;15.87;11.07;;;7.10;99.00;;;6.94;71.69;95367.00;4989583;28;20455;-57
2022/01/01 02:01:37;;;;;;;21.33;11.03;;;7.00;98.90;;;6.93;71.48;95363.56;4986680;28;21025;-57
2022/01/01 02:04:05;;;;;;;19.63;11.40;;;7.00;99.00;;;6.93;71.55;95362.75;4986902;28;21195;-62
2022/01/01 02:06:32;;;;;;;21.27;11.93;;;7.00;99.10;;;6.92;71.79;95355.81;4988851;28;20986;-56
2022/01/01 02:09:00;;;;;;;20.00;13.20;;;7.00;99.00;;;6.92;71.06;95347.97;4987832;28;20510;-61
2022/01/01 02:11:28;;;;;;;20.17;12.57;;;7.00;99.20;;;6.91;71.52;95355.00;4988201;28;20874;-58
2022/01/01 02:14:15;;;;;;;21.20;11.43;;;7.00;99.10;;;6.90;71.31;95357.72;4988191;28;20455;-62
2022/01/01 02:19:44;;;;;;;16.17;11.33;;;7.00;99.00;;;6.91;71.85;95355.00;4962544;28;20453;-56
2022/01/01 02:22:13;;;;;;;21.40;12.30;;;7.00;99.20;;;6.91;71.13;95354.16;4987319;28;20450;-62
2022/01/01 02:24:41;;;;;;;15.87;9.70;;;7.00;99.20;;;6.90;71.06;95368.19;4989743;28;20462;-61
2022/01/01 02:27:08;;;;;;;18.33;11.57;;;7.00;99.20;;;6.90;71.13;95362.94;4988623;28;20462;-57
2022/01/01 02:29:35;;;;;;;16.53;10.67;;;7.00;99.00;;;6.88;71.46;95359.59;4987557;28;20462;-61
2022/01/01 02:32:04;;;;;;;19.23;12.10;;;7.00;99.20;;;6.88;71.85;95351.75;4990610;28;20493;-58
2022/01/01 02:34:31;;;;;;;21.00;12.80;;;7.00;99.20;;;6.89;71.69;95358.66;4990513;28;20455;-58
2022/01/01 02:36:58;;;;;;;24.03;13.40;;;7.00;99.40;;;6.90;71.61;95344.66;4992137;28;21004;-61
2022/01/01 02:39:27;;;;;;;25.20;13.23;;;7.00;99.50;;;6.92;71.76;95342.75;4992057;28;20450;-62
2022/01/01 02:41:55;;;;;;;22.53;12.70;;;7.00;99.60;;;6.92;71.79;95342.75;4991967;28;20466;-62
2022/01/01 02:44:23;;;;;;;23.90;12.07;;;7.10;99.80;;;6.96;72.76;95336.38;4992254;28;20463;-56
2022/01/01 02:46:50;;;;;;;20.37;11.70;;;7.10;99.90;;;7.00;72.90;95332.59;4991721;28;20789;-62
2022/01/01 02:49:17;;;;;;;19.93;12.53;;;7.10;99.90;;;7.03;72.22;95342.00;4991828;28;20454;-56
2022/01/01 02:51:45;;;;;;;24.27;12.53;;;7.10;99.90;;;7.08;72.81;95334.66;4991821;28;20877;-62
2022/01/01 02:54:12;;;;;;;24.83;13.83;;;7.20;99.90;;;7.09;72.39;95331.94;4991315;28;20993;-58
2022/01/01 02:56:40;;;;;;;24.80;14.33;;;7.20;99.90;;;7.14;72.38;95340.34;4992019;28;20481;-62
2022/01/01 02:59:08;;;;;;;17.83;12.37;;;7.20;99.90;;;7.16;72.40;95330.59;4990835;28;21937;-56
2022/01/01 03:01:35;;;;;;;24.10;13.70;;;7.30;99.90;;;7.22;72.62;95320.63;4989745;28;20564;-62
2022/01/01 03:04:02;;;;;;;22.80;11.60;;;7.30;99.90;;;7.24;72.32;95313.53;4992011;28;20865;-56
2022/01/01 03:06:30;;;;;;;20.00;11.63;;;7.40;99.90;;;7.27;71.93;95319.38;4991258;28;20479;-57
2022/01/01 03:08:57;;;;;;;24.77;13.33;;;7.40;99.90;;;7.31;72.23;95309.50;4992008;28;20506;-57
2022/01/01 03:11:24;;;;;;;28.10;15.57;;;7.40;99.90;;;7.32;72.15;95301.56;4991087;28;20509;-62
2022/01/01 03:13:53;;;;;;;28.07;15.57;;;7.40;99.90;;;7.33;72.34;95302.41;4991166;28;20462;-63
2022/01/01 03:16:20;;;;;;;27.17;14.57;;;7.50;99.90;;;7.32;71.82;95300.72;4990352;28;20489;-63
2022/01/01 03:18:48;;;;;;;28.23;16.50;;;7.40;99.80;;;7.32;72.25;95306.78;4989591;28;20833;-63
2022/01/01 03:21:15;;;;;;;31.53;16.93;;;7.40;99.80;;;7.29;72.34;95307.00;4990092;28;21436;-57
2022/01/01 03:23:42;;;;;;;32.83;17.40;;;7.40;99.90;;;7.30;71.79;95300.84;4991567;28;20462;-60
2022/01/01 03:26:10;;;;;;;23.40;15.33;;;7.40;99.80;;;7.28;71.86;95312.34;4990719;28;20470;-63
2022/01/01 03:28:37;;;;;;;26.33;15.63;;;7.40;99.80;;;7.25;72.23;95309.94;4988898;28;20462;-61
2022/01/01 03:31:05;;;;;;;24.10;14.17;;;7.40;99.90;;;7.23;71.57;95306.63;4991801;28;20501;-57
2022/01/01 03:33:33;;;;;;;21.97;11.93;;;7.30;99.80;;;7.23;71.44;95311.84;4989037;28;20975;-57
2022/01/01 03:36:00;;;;;;;14.53;8.90;;;7.30;99.70;;;7.23;71.43;95317.91;4988938;28;20477;-63
2022/01/01 03:38:29;;;;;;;9.87;8.00;;;7.30;99.70;;;7.24;72.19;95308.28;4988767;28;20470;-63
2022/01/01 03:40:56;;;;;;;10.57;7.43;;;7.40;99.70;;;7.25;72.03;95310.81;4988331;28;20516;-61
2022/01/01 03:43:23;;;;;;;11.53;7.33;;;7.40;99.60;;;7.26;71.28;95309.84;4987219;28;20481;-61
2022/01/01 03:45:51;;;;;;;14.50;8.13;;;7.40;99.60;;;7.26;71.60;95314.25;4990402;28;20480;-57
2022/01/01 03:48:19;;;;;;;14.03;8.73;;;7.40;99.60;;;7.27;71.76;95324.59;4988483;28;20516;-61
2022/01/01 03:50:47;;;;;;;14.43;8.07;;;7.40;99.50;;;7.25;71.41;95312.56;4988005;28;20497;-60
2022/01/01 03:53:16;;;;;;;18.23;7.80;;;7.40;99.20;;;7.23;71.08;95311.84;4988890;28;20509;-57
2022/01/01 03:55:43;;;;;;;14.37;8.27;;;7.40;99.20;;;7.22;71.20;95294.47;4985035;28;20470;-61
2022/01/01 03:58:10;;;;;;;12.37;8.03;;;7.30;99.10;;;7.20;71.02;95286.72;4989425;28;20458;-61
2022/01/01 04:00:39;;;;;;;10.57;7.70;;;7.30;99.20;;;7.21;71.59;95304.09;4988697;28;20475;-57
2022/01/01 04:03:08;;;;;;;12.93;8.53;;;7.30;99.20;;;7.20;71.84;95293.75;4989093;28;20451;-61
2022/01/01 04:05:37;;;;;;;11.67;8.53;;;7.30;99.40;;;7.20;70.88;95298.97;4987549;28;20482;-57
2022/01/01 04:08:05;;;;;;;16.93;9.17;;;7.30;99.10;;;7.18;71.48;95278.16;4989506;28;20462;-62
2022/01/01 04:10:32;;;;;;;17.93;10.87;;;7.30;99.10;;;7.15;71.43;95273.97;4989630;28;20470;-57
2022/01/01 04:12:59;;;;;;;15.50;10.07;;;7.30;99.10;;;7.11;70.83;95280.38;4989538;28;20619;-57
2022/01/01 04:15:27;;;;;;;16.40;9.90;;;7.20;99.10;;;7.09;71.21;95279.63;4987615;28;20475;-58
2022/01/01 04:17:58;;;;;;;14.53;10.97;;;7.20;99.20;;;7.09;71.61;95277.03;4989526;28;20544;-56
2022/01/01 04:20:25;;;;;;;16.20;10.30;;;7.20;99.30;;;7.09;71.23;95274.41;4988231;28;20561;-57
2022/01/01 04:22:54;;;;;;;16.00;9.43;;;7.20;99.30;;;7.08;71.75;95262.28;4989768;28;20470;-62
2022/01/01 04:25:21;;;;;;;15.03;8.30;;;7.20;99.40;;;7.07;71.59;95271.06;4988393;28;20482;-62
2022/01/01 04:27:48;;;;;;;10.97;8.27;;;7.20;99.50;;;7.08;71.93;95271.91;4989026;28;20602;-56
2022/01/01 04:30:16;;;;;;;13.10;8.07;;;7.20;99.60;;;7.08;72.05;95262.28;4990449;28;20470;-57
2022/01/01 04:32:43;;;;;;;14.67;8.40;;;7.20;99.70;;;7.10;72.00;95257.78;4989794;28;21022;-60
2022/01/01 04:35:11;;;;;;;11.20;7.37;;;7.20;99.80;;;7.16;71.88;95259.97;4990256;28;20481;-57
2022/01/01 04:37:39;;;;;;;7.27;6.33;;;7.30;99.90;;;7.20;72.00;95254.50;4989295;28;20462;-62
2022/01/01 04:40:09;;;;;;;7.27;6.47;;;7.30;99.90;;;7.23;71.71;95256.91;4988915;28;21042;-61
2022/01/01 04:42:36;;;;;;;13.53;6.03;;;7.30;99.90;;;7.25;71.91;95253.25;4988913;28;21011;-61
2022/01/01 04:45:05;;;;;;;6.33;5.40;;;7.30;99.90;;;7.29;72.26;95259.91;4989415;28;20532;-61
2022/01/01 04:47:32;;;;;;;7.30;5.43;;;7.40;99.90;;;7.31;71.98;95262.41;4989668;28;20509;-58
2022/01/01 04:50:02;;;;;;;6.57;5.17;;;7.40;99.90;;;7.32;72.05;95248.41;4990349;28;20470;-61
2022/01/01 04:52:29;;;;;;;6.50;5.20;;;7.40;99.90;;;7.34;72.17;95249.97;4988601;28;20578;-61
2022/01/01 04:54:57;;;;;;;6.17;5.10;;;7.50;99.90;;;7.38;72.21;95237.50;4987252;28;21007;-57
2022/01/01 04:57:30;;;;;;;6.50;5.10;;;7.50;99.90;;;7.40;72.55;95238.19;4989209;28;20967;-57
2022/01/01 04:59:57;;;;;;;11.93;6.20;;;7.50;99.90;;;7.43;72.20;95237.97;4990756;28;20901;-61
2022/01/01 05:02:26;;;;;;;6.33;4.77;;;7.50;99.90;;;7.46;71.57;95250.84;4988636;28;20465;-56
2022/01/01 05:04:54;;;;;;;5.43;5.00;;;7.50;99.90;;;7.45;71.95;95257.03;4988050;28;21093;-62
2022/01/01 05:07:21;;;;;;;7.40;4.97;;;7.60;99.90;;;7.45;71.95;95269.28;4988486;28;20794;-62
2022/01/01 05:09:48;;;;;;;6.83;5.80;;;7.50;99.90;;;7.45;72.12;95279.75;4989488;28;21307;-56
2022/01/01 05:12:15;;;;;;;5.90;4.90;;;7.50;99.90;;;7.43;71.77;95279.03;4988892;28;20659;-62
2022/01/01 05:14:44;;;;;;;6.90;5.73;;;7.50;99.80;;;7.43;71.91;95289.50;4987836;28;20478;-56
2022/01/01 05:17:13;;;;;;;5.23;4.70;;;7.50;99.90;;;7.44;71.69;95284.16;4989023;28;20462;-57
2022/01/01 05:19:40;;;;;;;7.27;5.10;;;7.50;99.90;;;7.47;72.31;95285.72;4988129;28;20534;-59
2022/01/01 05:22:07;;;;;;;7.83;5.70;;;7.50;99.90;;;7.49;71.90;95291.66;4988602;28;20453;-60
2022/01/01 05:24:35;;;;;;;9.73;5.87;;;7.60;99.90;;;7.50;71.90;95288.94;4988323;28;20450;-63
2022/01/01 05:27:03;;;;;;;7.90;5.70;;;7.60;99.80;;;7.53;72.03;95287.91;4989083;28;20457;-61
2022/01/01 05:29:30;;;;;;;11.97;5.20;;;7.60;99.80;;;7.54;71.60;95295.63;4988602;28;20463;-56
2022/01/01 05:31:59;;;;;;;7.73;5.83;;;7.60;99.80;;;7.56;72.00;95299.91;4988465;28;20932;-57
2022/01/01 05:34:26;;;;;;;8.80;6.20;;;7.60;99.70;;;7.56;72.02;95307.75;4987754;28;20533;-61
2022/01/01 05:36:54;;;;;;;10.40;6.60;;;7.60;99.80;;;7.57;72.06;95306.81;4989786;28;20509;-57
2022/01/01 05:39:21;;;;;;;10.93;6.40;;;7.60;99.80;;;7.57;71.70;95312.06;4987416;28;20451;-61
2022/01/01 05:41:52;;;;;;;7.47;5.87;;;7.60;99.70;;;7.55;71.39;95314.78;4988769;28;20455;-62
2022/01/01 05:44:19;;;;;;;11.20;7.10;;;7.60;99.60;;;7.54;71.20;95315.72;4987110;28;20717;-63
2022/01/01 05:46:47;;;;;;;10.13;6.43;;;7.60;99.60;;;7.53;71.24;95320.13;4988994;28;20475;-62
2022/01/01 05:49:15;;;;;;;7.70;6.30;;;7.60;99.60;;;7.52;71.78;95313.22;4987042;28;20471;-62
2022/01/01 05:51:42;;;;;;;12.43;6.57;;;7.60;99.50;;;7.51;71.86;95311.56;4989368;28;20490;-61
2022/01/01 05:54:10;;;;;;;11.83;5.73;;;7.60;99.60;;;7.52;71.36;95307.16;4987806;28;20462;-57
2022/01/01 05:56:37;;;;;;;17.80;9.27;;;7.60;99.60;;;7.52;71.61;95315.84;4988299;28;20474;-56
2022/01/01 05:59:04;;;;;;;8.30;7.00;;;7.60;99.60;;;7.50;71.01;95304.66;4987468;28;20454;-63
2022/01/01 06:01:32;;;;;;;10.00;7.07;;;7.60;99.60;;;7.49;71.26;95308.19;4987146;28;20490;-62
2022/01/01 06:03:59;;;;;;;8.27;5.97;;;7.60;99.60;;;7.47;71.49;95311.91;4985997;28;20932;-56
2022/01/01 06:06:28;;;;;;;5.57;5.07;;;7.60;99.70;;;7.46;71.56;95304.97;4991957;28;21041;-62
2022/01/01 06:08:55;;;;;;;10.20;4.80;;;7.50;99.70;;;7.44;71.90;95299.03;4992103;28;20463;-62
2022/01/01 06:11:22;;;;;;;7.53;5.10;;;7.50;99.80;;;7.43;71.53;95299.97;4992707;28;20489;-62
2022/01/01 06:13:50;;;;;;;5.23;4.73;;;7.50;99.80;;;7.42;72.08;95301.75;4992356;28;20458;-62
2022/01/01 06:16:17;;;;;;;6.70;5.73;;;7.50;99.90;;;7.45;72.01;95303.28;4990804;28;20486;-56
2022/01/01 06:18:45;;;;;;;6.40;4.80;;;7.50;99.90;;;7.46;72.19;95305.81;4992827;28;20463;-56
2022/01/01 06:21:12;;;;;;;13.03;5.97;;;7.50;99.90;;;7.48;72.28;95306.53;4991393;28;20470;-62
2022/01/01 06:23:41;;;;;;;6.87;6.13;;;7.60;99.90;;;7.52;72.15;95301.91;4992316;28;20465;-62
2022/01/01 06:26:08;;;;;;;8.57;6.43;;;7.60;99.90;;;7.56;71.87;95297.28;4991735;28;20474;-62
2022/01/01 06:28:36;;;;;;;11.60;5.60;;;7.70;99.90;;;7.61;71.94;95300.44;4992319;28;20454;-62
2022/01/01 06:31:03;;;;;;;9.70;6.50;;;7.70;99.90;;;7.68;72.20;95293.78;4991709;28;20481;-61
2022/01/01 06:33:30;;;;;;;8.70;6.70;;;7.80;99.90;;;7.78;71.62;95312.28;4990277;28;20683;-62
2022/01/01 06:35:57;;;;;;;10.43;6.93;;;7.80;99.90;;;7.89;71.73;95315.78;4990760;28;20541;-62
2022/01/01 06:38:25;;;;;;;6.93;5.50;;;7.90;99.90;;;7.97;71.21;95322.25;4991752;28;20458;-57
2022/01/01 06:40:53;;;;;;;9.47;5.93;;;8.00;99.70;;;8.06;71.47;95332.88;4990648;28;20879;-62
2022/01/01 06:43:23;;;;;;;6.47;5.77;;;8.10;99.50;;;8.12;71.28;95328.97;4991809;28;21013;-58
2022/01/01 06:45:50;;;;;;;6.80;5.33;;;8.20;99.50;;;8.18;71.02;95325.91;4991449;28;20471;-61
2022/01/01 06:48:17;;;;;;;6.20;5.43;;;8.20;99.50;;;8.25;70.85;95327.09;4991379;28;20504;-56
2022/01/01 06:50:44;;;;;;;6.00;5.13;;;8.30;99.50;;;8.47;70.57;95325.53;4990780;28;20545;-62
2022/01/01 06:53:12;;;;;;;7.80;5.70;;;8.50;99.60;;;8.64;70.32;95332.13;4990812;28;20904;-56
2022/01/01 06:55:39;;;;;;;12.30;6.80;;;8.70;99.00;;;8.71;69.88;95330.72;4990979;28;20913;-57
2022/01/01 06:58:08;;;;;;;8.67;6.20;;;8.80;98.70;;;8.70;69.73;95336.91;4991716;28;20454;-56
2022/01/01 07:00:35;;;;;;;10.27;6.30;;;8.80;98.40;;;8.68;69.70;95312.59;4990631;28;20482;-57
2022/01/01 07:03:02;;;;;;;5.93;5.30;;;8.80;98.40;;;8.69;69.56;95318.66;4990748;28;20560;-57
2022/01/01 07:05:30;;;;;;;6.07;4.87;;;8.80;98.40;;;8.88;70.17;95324.19;4991229;28;20948;-57
2022/01/01 07:07:57;;;;;;;8.30;6.00;;;8.90;98.70;;;9.26;69.43;95330.84;4991562;28;20463;-58
2022/01/01 07:10:27;;;;;;;7.53;5.47;;;9.30;98.50;;;9.65;68.42;95339.16;4991397;28;20487;-57
2022/01/01 07:12:55;;;;;;;7.57;6.20;;;9.70;98.20;;;9.92;67.40;95337.91;4991386;28;20581;-58
2022/01/01 07:15:23;;;;;;;7.03;6.10;;;10.00;96.80;;;10.09;66.84;95340.97;4990628;28;20489;-56
2022/01/01 07:17:51;;;;;;;6.90;6.00;;;10.20;96.30;;;10.20;66.42;95343.53;4991232;28;20446;-57
2022/01/01 07:20:18;;;;;;;10.73;6.50;;;10.30;95.90;;;10.50;66.05;95345.47;4992394;28;20478;-61
2022/01/01 07:22:46;;;;;;;8.40;6.93;;;10.60;95.80;;;10.69;65.37;95352.66;4991833;28;20839;-58
2022/01/01 07:25:14;;;;;;;10.60;7.23;;;10.80;94.90;;;11.04;64.76;95343.56;4992493;28;21006;-56
2022/01/01 07:27:42;;;;;;;10.73;7.23;;;11.20;95.00;;;11.73;64.31;95344.66;4991377;28;20463;-59
2022/01/01 07:30:10;;;;;;;9.30;8.13;;;11.80;94.90;;;12.37;62.83;95342.53;4991532;28;20477;-57
2022/01/01 07:32:41;;;;;;;9.47;7.40;;;12.50;93.80;;;13.01;60.62;95341.06;4992611;28;20494;-61
2022/01/01 07:35:09;;;;;;;9.93;6.40;;;13.20;92.10;;;13.83;59.70;95336.00;4990431;28;20470;-62
2022/01/01 07:37:36;;;;;;;6.27;5.67;;;14.10;91.50;;;14.70;57.97;95352.22;4989323;28;20458;-56
2022/01/01 07:40:06;;;;;;;8.47;5.87;;;15.00;90.10;;;15.53;55.72;95348.28;4990461;28;20485;-56
2022/01/01 07:42:33;;;;;;;6.83;5.60;;;15.90;86.50;;;16.30;54.38;95358.88;4989774;28;20512;-62
2022/01/01 07:45:01;;;;;;;6.87;5.37;;;16.70;83.30;;;17.00;52.39;95352.28;4990672;28;20766;-58
2022/01/01 07:47:28;;;;;;;7.23;4.70;;;17.40;79.40;;;17.63;50.31;95352.47;4990063;28;20449;-58
2022/01/01 07:49:57;;;;;;;4.57;3.70;;;18.00;75.30;;;18.18;49.87;95342.78;4988101;28;20478;-63
2022/01/01 07:52:24;;;;;;;7.27;3.83;;;18.50;73.20;;;18.67;48.93;95347.78;4988395;28;21047;-56
2022/01/01 07:54:52;;;;;;;8.83;3.37;;;18.90;70.90;;;18.98;48.33;95344.22;4989620;28;20474;-58
2022/01/01 07:57:19;;;;;;;3.70;3.40;;;19.20;69.80;;;19.13;46.71;95347.75;4987938;28;20470;-56
2022/01/01 07:59:46;;;;;;;3.67;3.37;;;19.20;66.50;;;19.09;46.89;95334.97;4991044;28;20738;-57
2022/01/01 08:02:13;;;;;;;3.13;2.93;;;19.10;66.60;;;19.03;47.99;95341.84;4986047;28;20539;-58
2022/01/01 08:04:41;;;;;;;3.47;3.20;;;19.00;67.30;;;19.11;47.97;95336.44;4989502;28;20671;-63
2022/01/01 08:07:09;;;;;;;3.60;3.27;;;19.10;68.30;;;19.30;48.21;95336.91;4988193;28;20492;-58
2022/01/01 08:09:38;;;;;;;7.77;3.50;;;19.10;68.40;;;19.29;47.18;95341.44;4990104;28;20465;-56
2022/01/01 08:12:08;;;;;;;3.37;3.07;;;19.10;68.30;;;18.95;47.36;95341.94;4989122;28;20568;-58
2022/01/01 08:14:35;;;;;;;3.40;3.10;;;18.90;66.00;;;18.50;48.59;95341.75;4990640;28;20788;-58
2022/01/01 08:17:04;;;;;;;2.13;1.80;;;18.50;67.50;;;18.02;50.11;95346.38;4985805;28;20469;-61
2022/01/01 08:19:31;;;;;;;3.40;2.07;;;18.10;70.10;;;17.52;51.03;95341.22;4985630;28;20466;-63
2022/01/01 08:21:59;;;;;;;1.70;1.60;;;17.60;71.60;;;17.01;50.94;95352.13;4990448;28;20454;-57
2022/01/01 08:24:27;;;;;;;2.60;2.40;;;17.10;71.30;;;16.56;51.81;95337.50;4989435;28;20469;-64
2022/01/01 08:26:55;;;;;;;2.20;2.00;;;16.70;73.50;;;16.20;52.57;95348.38;4989246;28;20463;-63
2022/01/01 08:29:23;;;;;;;1.37;1.27;;;16.20;74.20;;;15.97;52.90;95348.16;4988814;28;20538;-57
2022/01/01 08:31:51;;;;;;;2.53;1.70;;;15.90;75.40;;;15.82;53.05;95350.59;4984253;28;20481;-61
2022/01/01 08:34:19;;;;;;;3.13;1.63;;;15.70;75.90;;;15.81;53.69;95353.41;4989841;28;20455;-61
2022/01/01 08:36:47;;;;;;;2.50;2.30;;;15.70;77.40;;;16.01;53.67;95354.81;4990262;28;20505;-57
2022/01/01 08:39:15;;;;;;;2.30;2.10;;;15.80;78.40;;;16.37;52.53;95356.38;4987558;28;20555;-56
2022/01/01 08:41:44;;;;;;;5.90;4.30;;;16.00;77.00;;;16.78;52.75;95351.94;4989367;28;20477;-61
2022/01/01 08:44:12;;;;;;;4.27;3.67;;;16.30;77.70;;;17.01;51.89;95354.78;4987253;28;20463;-57
2022/01/01 08:46:39;;;;;;;2.20;2.10;;;16.60;76.20;;;17.06;51.45;95359.59;4990494;28;20617;-57
2022/01/01 08:49:07;;;;;;;2.20;2.10;;;16.70;74.90;;;17.22;51.04;95363.22;4989321;28;20447;-58
2022/01/01 08:51:35;;;;;;;2.60;1.97;;;16.90;75.00;;;17.34;50.79;95368.00;4989961;28;20481;-61
2022/01/01 08:54:02;;;;;;;2.57;2.33;;;17.00;74.00;;;17.43;50.55;95371.50;4987095;28;20494;-57
2022/01/01 08:56:30;;;;;;;4.43;1.93;;;17.10;74.00;;;17.36;50.27;95366.00;4988755;28;20565;-57
2022/01/01 08:58:58;;;;;;;2.50;2.30;;;17.10;73.40;;;17.20;49.64;95366.03;4990550;28;20462;-56
2022/01/01 09:01:26;;;;;;;3.23;2.63;;;17.00;71.60;;;17.16;51.38;95378.00;4987158;28;20478;-63
2022/01/01 09:03:53;;;;;;;3.80;3.50;;;16.90;74.40;;;17.19;50.99;95385.66;4987091;28;20462;-58
2022/01/01 09:06:21;;;;;;;4.83;4.43;;;17.00;73.80;;;17.43;52.19;95392.75;4989725;28;20502;-57
2022/01/01 09:08:48;;;;;;;3.73;2.17;;;17.10;76.70;;;17.77;50.74;95383.69;4987500;28;20565;-56
2022/01/01 09:11:16;;;;;;;2.93;2.73;;;17.30;73.80;;;18.18;48.21;95370.22;4987059;28;20550;-60
2022/01/01 09:13:43;;;;;;;3.33;2.73;;;17.70;70.70;;;18.64;49.65;95378.25;4986736;28;20501;-60
2022/01/01 09:16:13;;;;;;;3.73;2.60;;;18.10;72.70;;;18.74;48.57;95378.03;4983947;28;20596;-58
2022/01/01 09:18:40;;;;;;;3.17;2.90;;;18.30;71.10;;;18.62;47.70;95382.09;4987195;28;20590;-59
2022/01/01 09:21:08;;;;;;;2.73;2.47;;;18.30;68.10;;;18.58;48.47;95378.97;4989249;28;21033;-59
2022/01/01 09:23:35;;;;;;;4.57;3.60;;;18.30;70.00;;;18.76;49.30;95372.50;4990649;28;20554;-62
2022/01/01 09:26:02;;;;;;;3.20;3.00;;;18.40;71.30;;;18.90;49.11;95379.78;4989538;28;20475;-61
2022/01/01 09:28:30;;;;;;;3.63;3.40;;;18.50;70.70;;;18.81;48.45;95386.16;4986875;28;20470;-60
2022/01/01 09:30:57;;;;;;;2.63;2.43;;;18.50;69.90;;;18.66;49.21;95382.59;4987609;28;20470;-61
2022/01/01 09:33:29;;;;;;;2.93;2.73;;;18.40;70.50;;;18.41;49.13;95386.25;4987998;28;20538;-60
2022/01/01 09:35:57;;;;;;;2.40;2.30;;;18.20;69.90;;;18.19;49.19;95387.88;4988775;28;21276;-57
2022/01/01 09:38:24;;;;;;;3.37;2.50;;;18.00;70.00;;;17.98;49.75;95384.97;4987148;28;20546;-58
2022/01/01 09:40:54;;;;;;;2.73;2.53;;;17.80;70.60;;;17.71;48.92;95390.53;4991082;28;21005;-59
2022/01/01 09:43:22;;;;;;;2.97;2.77;;;17.60;69.30;;;17.40;49.64;95393.09;4990185;28;20962;-56
2022/01/01 09:45:50;;;;;;;5.27;3.43;;;17.30;69.80;;;17.09;50.00;95393.81;4984694;28;20484;-57
2022/01/01 09:48:19;;;;;;;2.87;2.63;;;17.00;70.20;;;16.81;50.77;95387.97;4990095;28;20463;-60
2022/01/01 09:50:49;;;;;;;3.90;3.60;;;16.70;71.10;;;16.59;51.38;95392.94;4988986;28;21049;-58
2022/01/01 09:53:17;;;;;;;2.93;2.27;;;16.50;72.00;;;16.39;51.42;95392.41;4988323;28;20474;-63
2022/01/01 09:55:44;;;;;;;5.53;2.93;;;16.30;72.70;;;16.24;51.89;95383.41;4988478;28;20482;-60
2022/01/01 09:58:12;;;;;;;3.53;3.23;;;16.20;73.60;;;16.10;52.26;95395.47;4985129;28;20462;-58
2022/01/01 10:00:39;;;;;;;4.50;3.00;;;16.00;74.10;;;15.97;52.82;95395.09;4985316;28;20490;-62
2022/01/01 10:03:11;;;;;;;11.63;4.70;;;15.90;75.00;;;15.81;53.03;95393.19;4985675;28;21112;-62
2022/01/01 10:05:58;;;;;;;5.00;3.77;;;15.70;75.30;;;15.66;53.19;95398.22;4984009;28;20889;-61
2022/01/01 10:08:25;;;;;;;23.20;6.90;;;15.60;75.80;;;15.53;54.01;95406.63;4987572;28;20446;-57
2022/01/01 10:10:53;;;;;;;3.50;3.20;;;15.40;77.30;;;15.44;54.03;95404.91;4988669;28;20474;-62
2022/01/01 10:13:26;;;;;;;4.93;4.17;;;15.40;77.40;;;15.31;54.17;95415.94;4983525;28;20943;-64
2022/01/01 10:15:56;;;;;;;6.17;4.57;;;15.20;77.50;;;15.21;54.33;95406.28;4990777;28;20489;-64
2022/01/01 10:18:30;;;;;;;4.87;4.37;;;15.20;77.90;;;15.18;54.35;95401.28;4989794;28;20462;-56
2022/01/01 10:21:00;;;;;;;4.77;4.27;;;15.10;78.10;;;15.17;54.35;95396.13;4990852;28;20568;-64
2022/01/01 10:23:30;;;;;;;3.90;3.60;;;15.10;78.50;;;15.17;54.46;95396.13;4988307;28;20498;-56
2022/01/01 10:29:12;;;;;;;3.43;2.97;;;15.00;78.80;;;15.05;54.16;95391.06;4989913;28;20434;-63
2022/01/01 10:31:40;;;;;;;3.73;3.30;;;15.00;78.10;;;14.97;54.33;95387.53;4985680;28;20466;-57